Ganlose, Denmark
Current Conditions -  °F | °C
As of 6:20 AM on Thursday 27 Nov 2014 (Local Time) from EKRK Reporting Station
Scattered Clouds Scattered Clouds  
Wind Chill: 34°   Ceiling: Unl
Heat Index: 39°   Visibility: 6mi
Dew Point: 36°   Wind: 8mph
Humidity: 87%   Direction: 150°SSE
Pressure: 30.09"   Gusts: NA
Location:  55.79°N, 12.26°E
Report Text: EKRK 270520Z AUTO 15007KT 9999NDV SCT026/// 04/02 Q1019
Loading
Personal Weather Stations






























Interactive Weather Map New forecast layout! Learn more

10-Day Weather Forecast

Advertisements
Track Severe Weather on mobile